KTRM/TRM METAR and TAF weather

Enter ICAO airport designator
Station Type Date Time Source
KTRM METAR 2020/08/31 14:52 UTC NOAA

KTRM 311452Z AUTO 34005KT 8SM FEW033 30/18 A2975 RMK AO2 SLP076 T03000178 51010


Station Type Date Time Source
KTRM Decoded METAR 2020/08/31 14:52 UTC NOAA

Palm Springs, Jacqueline Cochran Regional Airport, CA, United States (KTRM) 33-37-36N 116-09-34W
Aug 31, 2020 - 10:52 AM EDT / 2020.08.31 1452 UTC
Wind: from the NNW (340 degrees) at 6 MPH (5 KT):0
Visibility: 8 mile(s):0
Sky conditions: mostly clear
Temperature: 86.0 F (30.0 C)
Dew Point: 64.0 F (17.8 C)
Relative Humidity: 48%
Pressure (altimeter): 29.75 in. Hg (1007 hPa)
Pressure tendency: 0.03 inches (1.0 hPa) higher than three hours ago
ob: KTRM 311452Z AUTO 34005KT 8SM FEW033 30/18 A2975 RMK AO2 SLP076 T03000178 51010
cycle: 15

Station Type Date Time Source
KTRM TAF 2020/09/20 06:22 UTC NOAA

TAF KTRM 200520Z 2006/2106 33006KT P6SM SKC
FM202000 14010KT P6SM SKC
FM210300 33007KT P6SM SKC
AMD NOT SKED

Example: see airport list